sensor_id;sensor_type;location;lat;lon;timestamp;P1;durP1;ratioP1;P2;durP2;ratioP2
1054;SDS011;516;51.482;7.120;2022-08-24T00:00:27;8.40;;;7.70;;
1054;SDS011;516;51.482;7.120;2022-08-24T00:06:17;8.10;;;7.50;;
1054;SDS011;516;51.482;7.120;2022-08-24T00:12:07;10.17;;;8.70;;
1054;SDS011;516;51.482;7.120;2022-08-24T00:17:55;11.90;;;10.07;;
1054;SDS011;516;51.482;7.120;2022-08-24T00:23:32;9.37;;;8.67;;
1054;SDS011;516;51.482;7.120;2022-08-24T00:29:20;7.83;;;7.03;;
1054;SDS011;516;51.482;7.120;2022-08-24T00:35:08;11.10;;;7.90;;
1054;SDS011;516;51.482;7.120;2022-08-24T00:40:56;8.73;;;7.93;;
1054;SDS011;516;51.482;7.120;2022-08-24T00:46:30;9.43;;;8.63;;
1054;SDS011;516;51.482;7.120;2022-08-24T00:53:00;8.97;;;8.13;;
1054;SDS011;516;51.482;7.120;2022-08-24T00:58:51;12.63;;;9.37;;
1054;SDS011;516;51.482;7.120;2022-08-24T01:04:48;9.50;;;8.50;;
1054;SDS011;516;51.482;7.120;2022-08-24T01:11:17;10.70;;;9.70;;
1054;SDS011;516;51.482;7.120;2022-08-24T01:17:08;13.17;;;8.37;;
1054;SDS011;516;51.482;7.120;2022-08-24T01:26:44;9.43;;;8.63;;
1054;SDS011;516;51.482;7.120;2022-08-24T01:32:34;9.23;;;7.80;;
1054;SDS011;516;51.482;7.120;2022-08-24T01:38:21;8.67;;;7.83;;
1054;SDS011;516;51.482;7.120;2022-08-24T01:44:10;9.57;;;8.77;;
1054;SDS011;516;51.482;7.120;2022-08-24T01:50:00;10.47;;;8.47;;
1054;SDS011;516;51.482;7.120;2022-08-24T01:55:48;9.77;;;8.63;;
1054;SDS011;516;51.482;7.120;2022-08-24T02:01:38;11.47;;;10.43;;
1054;SDS011;516;51.482;7.120;2022-08-24T02:07:28;12.90;;;9.47;;
1054;SDS011;516;51.482;7.120;2022-08-24T02:13:18;9.87;;;9.07;;
1054;SDS011;516;51.482;7.120;2022-08-24T02:19:06;9.73;;;8.73;;
1054;SDS011;516;51.482;7.120;2022-08-24T02:21:52;9.63;;;8.80;;
1054;SDS011;516;51.482;7.120;2022-08-24T02:24:18;10.03;;;9.07;;
1054;SDS011;516;51.482;7.120;2022-08-24T02:30:06;15.87;;;10.77;;
1054;SDS011;516;51.482;7.120;2022-08-24T02:35:54;9.50;;;8.80;;
1054;SDS011;516;51.482;7.120;2022-08-24T02:41:42;10.00;;;9.10;;
1054;SDS011;516;51.482;7.120;2022-08-24T02:47:30;9.00;;;8.30;;
1054;SDS011;516;51.482;7.120;2022-08-24T02:53:18;10.50;;;9.50;;
1054;SDS011;516;51.482;7.120;2022-08-24T02:59:07;9.40;;;8.60;;
1054;SDS011;516;51.482;7.120;2022-08-24T03:04:55;10.90;;;9.80;;
1054;SDS011;516;51.482;7.120;2022-08-24T03:10:43;9.97;;;9.00;;
1054;SDS011;516;51.482;7.120;2022-08-24T03:16:31;10.13;;;9.30;;
1054;SDS011;516;51.482;7.120;2022-08-24T03:32:06;10.27;;;9.37;;
1054;SDS011;516;51.482;7.120;2022-08-24T03:37:54;10.20;;;9.30;;
1054;SDS011;516;51.482;7.120;2022-08-24T03:43:41;11.23;;;8.77;;
1054;SDS011;516;51.482;7.120;2022-08-24T03:49:32;11.27;;;10.07;;
1054;SDS011;516;51.482;7.120;2022-08-24T03:55:21;10.30;;;9.40;;
1054;SDS011;516;51.482;7.120;2022-08-24T04:01:09;10.47;;;9.47;;
1054;SDS011;516;51.482;7.120;2022-08-24T04:06:58;10.57;;;9.63;;
1054;SDS011;516;51.482;7.120;2022-08-24T04:12:45;9.93;;;9.20;;
1054;SDS011;516;51.482;7.120;2022-08-24T04:18:33;10.43;;;9.43;;
1054;SDS011;516;51.482;7.120;2022-08-24T04:24:34;10.17;;;9.43;;
1054;SDS011;516;51.482;7.120;2022-08-24T04:30:23;11.23;;;10.33;;
1054;SDS011;516;51.482;7.120;2022-08-24T04:36:10;10.57;;;9.70;;
1054;SDS011;516;51.482;7.120;2022-08-24T04:41:57;11.43;;;10.33;;
1054;SDS011;516;51.482;7.120;2022-08-24T04:47:45;10.10;;;9.30;;
1054;SDS011;516;51.482;7.120;2022-08-24T04:53:33;10.30;;;9.33;;
1054;SDS011;516;51.482;7.120;2022-08-24T04:59:21;11.03;;;9.73;;
1054;SDS011;516;51.482;7.120;2022-08-24T05:05:09;11.00;;;10.00;;
1054;SDS011;516;51.482;7.120;2022-08-24T05:10:58;10.33;;;9.30;;
1054;SDS011;516;51.482;7.120;2022-08-24T05:16:52;11.03;;;10.00;;
1054;SDS011;516;51.482;7.120;2022-08-24T05:26:25;11.60;;;8.90;;
1054;SDS011;516;51.482;7.120;2022-08-24T05:32:15;9.87;;;8.90;;
1054;SDS011;516;51.482;7.120;2022-08-24T05:38:03;9.50;;;8.50;;
1054;SDS011;516;51.482;7.120;2022-08-24T05:43:52;12.73;;;9.23;;
1054;SDS011;516;51.482;7.120;2022-08-24T05:49:40;14.50;;;8.87;;
1054;SDS011;516;51.482;7.120;2022-08-24T05:55:29;13.33;;;8.37;;
1054;SDS011;516;51.482;7.120;2022-08-24T06:01:18;9.03;;;7.83;;
1054;SDS011;516;51.482;7.120;2022-08-24T06:07:08;8.90;;;7.40;;
1054;SDS011;516;51.482;7.120;2022-08-24T06:12:56;9.80;;;7.30;;
1054;SDS011;516;51.482;7.120;2022-08-24T06:18:44;7.90;;;7.20;;
1054;SDS011;516;51.482;7.120;2022-08-24T06:27:55;8.97;;;7.17;;
1054;SDS011;516;51.482;7.120;2022-08-24T06:33:42;12.70;;;7.80;;
1054;SDS011;516;51.482;7.120;2022-08-24T06:39:30;8.27;;;7.40;;
1054;SDS011;516;51.482;7.120;2022-08-24T06:45:18;8.33;;;7.40;;
1054;SDS011;516;51.482;7.120;2022-08-24T06:51:14;8.10;;;7.50;;
1054;SDS011;516;51.482;7.120;2022-08-24T06:57:04;13.13;;;7.57;;
1054;SDS011;516;51.482;7.120;2022-08-24T07:02:52;8.80;;;7.90;;
1054;SDS011;516;51.482;7.120;2022-08-24T07:08:41;7.60;;;7.10;;
1054;SDS011;516;51.482;7.120;2022-08-24T07:14:29;8.40;;;7.63;;
1054;SDS011;516;51.482;7.120;2022-08-24T07:20:17;9.73;;;7.60;;
1054;SDS011;516;51.482;7.120;2022-08-24T07:29:27;9.70;;;7.97;;
1054;SDS011;516;51.482;7.120;2022-08-24T07:35:15;8.93;;;8.03;;
1054;SDS011;516;51.482;7.120;2022-08-24T07:41:03;9.80;;;8.50;;
1054;SDS011;516;51.482;7.120;2022-08-24T07:46:51;12.47;;;8.13;;
1054;SDS011;516;51.482;7.120;2022-08-24T07:52:38;10.00;;;8.40;;
1054;SDS011;516;51.482;7.120;2022-08-24T07:58:27;11.73;;;7.73;;
1054;SDS011;516;51.482;7.120;2022-08-24T08:04:15;8.90;;;8.00;;
1054;SDS011;516;51.482;7.120;2022-08-24T08:10:08;9.03;;;7.37;;
1054;SDS011;516;51.482;7.120;2022-08-24T08:15:57;7.53;;;6.93;;
1054;SDS011;516;51.482;7.120;2022-08-24T08:21:49;8.00;;;7.40;;
1054;SDS011;516;51.482;7.120;2022-08-24T08:24:55;10.53;;;7.33;;
1054;SDS011;516;51.482;7.120;2022-08-24T08:27:20;10.40;;;7.80;;
1054;SDS011;516;51.482;7.120;2022-08-24T08:33:08;8.03;;;7.33;;
1054;SDS011;516;51.482;7.120;2022-08-24T08:38:56;8.53;;;7.50;;
1054;SDS011;516;51.482;7.120;2022-08-24T08:51:23;8.07;;;7.47;;
1054;SDS011;516;51.482;7.120;2022-08-24T10:16:13;6.90;;;6.20;;
1054;SDS011;516;51.482;7.120;2022-08-24T10:35:05;8.10;;;5.73;;
1054;SDS011;516;51.482;7.120;2022-08-24T10:41:45;6.70;;;6.10;;
1054;SDS011;516;51.482;7.120;2022-08-24T10:51:56;6.50;;;6.00;;
1054;SDS011;516;51.482;7.120;2022-08-24T11:19:05;7.60;;;6.33;;
1054;SDS011;516;51.482;7.120;2022-08-24T11:51:00;6.23;;;5.73;;
1054;SDS011;516;51.482;7.120;2022-08-24T11:57:31;6.03;;;5.53;;
1054;SDS011;516;51.482;7.120;2022-08-24T12:17:07;6.50;;;5.90;;
1054;SDS011;516;51.482;7.120;2022-08-24T12:23:02;6.93;;;6.40;;
1054;SDS011;516;51.482;7.120;2022-08-24T12:38:37;7.40;;;6.80;;
1054;SDS011;516;51.482;7.120;2022-08-24T12:44:34;6.60;;;6.20;;
1054;SDS011;516;51.482;7.120;2022-08-24T13:03:21;6.13;;;5.83;;
1054;SDS011;516;51.482;7.120;2022-08-24T13:16:11;9.40;;;6.40;;
1054;SDS011;516;51.482;7.120;2022-08-24T13:32:20;7.23;;;6.73;;
1054;SDS011;516;51.482;7.120;2022-08-24T13:44:27;6.60;;;6.10;;
1054;SDS011;516;51.482;7.120;2022-08-24T14:16:50;7.27;;;6.83;;
1054;SDS011;516;51.482;7.120;2022-08-24T14:23:23;7.70;;;7.00;;
1054;SDS011;516;51.482;7.120;2022-08-24T14:44:54;7.90;;;7.10;;
1054;SDS011;516;51.482;7.120;2022-08-24T15:04:42;6.80;;;6.40;;
1054;SDS011;516;51.482;7.120;2022-08-24T15:10:40;7.00;;;6.50;;
1054;SDS011;516;51.482;7.120;2022-08-24T15:17:08;6.83;;;6.20;;
1054;SDS011;516;51.482;7.120;2022-08-24T15:23:19;7.60;;;6.80;;
1054;SDS011;516;51.482;7.120;2022-08-24T15:33:11;6.77;;;6.10;;
1054;SDS011;516;51.482;7.120;2022-08-24T15:39:24;7.63;;;6.00;;
1054;SDS011;516;51.482;7.120;2022-08-24T15:45:12;7.27;;;6.77;;
1054;SDS011;516;51.482;7.120;2022-08-24T15:50:59;6.90;;;6.40;;
1054;SDS011;516;51.482;7.120;2022-08-24T15:56:47;7.50;;;6.50;;
1054;SDS011;516;51.482;7.120;2022-08-24T16:02:41;7.70;;;6.80;;
1054;SDS011;516;51.482;7.120;2022-08-24T16:08:29;10.03;;;7.47;;
1054;SDS011;516;51.482;7.120;2022-08-24T16:15:15;7.07;;;6.43;;
1054;SDS011;516;51.482;7.120;2022-08-24T16:21:10;7.20;;;6.60;;
1054;SDS011;516;51.482;7.120;2022-08-24T16:33:49;7.60;;;6.83;;
1054;SDS011;516;51.482;7.120;2022-08-24T16:39:37;7.80;;;6.97;;
1054;SDS011;516;51.482;7.120;2022-08-24T16:45:24;7.20;;;6.70;;
1054;SDS011;516;51.482;7.120;2022-08-24T16:51:12;7.50;;;6.90;;
1054;SDS011;516;51.482;7.120;2022-08-24T16:57:04;8.97;;;7.00;;
1054;SDS011;516;51.482;7.120;2022-08-24T17:03:32;8.03;;;6.97;;
1054;SDS011;516;51.482;7.120;2022-08-24T17:09:20;7.83;;;7.23;;
1054;SDS011;516;51.482;7.120;2022-08-24T17:15:09;7.43;;;6.90;;
1054;SDS011;516;51.482;7.120;2022-08-24T17:20:58;7.40;;;6.80;;
1054;SDS011;516;51.482;7.120;2022-08-24T17:26:47;7.13;;;6.50;;
1054;SDS011;516;51.482;7.120;2022-08-24T17:32:37;7.13;;;6.53;;
1054;SDS011;516;51.482;7.120;2022-08-24T17:38:24;7.30;;;6.80;;
1054;SDS011;516;51.482;7.120;2022-08-24T17:44:16;11.17;;;7.60;;
1054;SDS011;516;51.482;7.120;2022-08-24T17:50:07;8.03;;;7.23;;
1054;SDS011;516;51.482;7.120;2022-08-24T17:55:56;6.90;;;6.20;;
1054;SDS011;516;51.482;7.120;2022-08-24T18:01:45;9.83;;;7.00;;
1054;SDS011;516;51.482;7.120;2022-08-24T18:07:33;7.60;;;7.10;;
1054;SDS011;516;51.482;7.120;2022-08-24T18:13:21;7.90;;;7.20;;
1054;SDS011;516;51.482;7.120;2022-08-24T18:19:09;10.57;;;7.40;;
1054;SDS011;516;51.482;7.120;2022-08-24T18:24:59;7.93;;;7.23;;
1054;SDS011;516;51.482;7.120;2022-08-24T18:30:27;8.97;;;8.00;;
1054;SDS011;516;51.482;7.120;2022-08-24T18:36:16;7.63;;;6.90;;
1054;SDS011;516;51.482;7.120;2022-08-24T18:42:05;10.10;;;6.93;;
1054;SDS011;516;51.482;7.120;2022-08-24T18:47:55;9.00;;;7.87;;
1054;SDS011;516;51.482;7.120;2022-08-24T18:53:43;10.10;;;7.80;;
1054;SDS011;516;51.482;7.120;2022-08-24T18:59:30;8.90;;;8.10;;
1054;SDS011;516;51.482;7.120;2022-08-24T19:05:20;8.00;;;7.20;;
1054;SDS011;516;51.482;7.120;2022-08-24T19:11:10;7.20;;;6.70;;
1054;SDS011;516;51.482;7.120;2022-08-24T19:16:59;7.67;;;7.07;;
1054;SDS011;516;51.482;7.120;2022-08-24T19:22:47;8.13;;;7.33;;
1054;SDS011;516;51.482;7.120;2022-08-24T19:38:25;7.60;;;7.10;;
1054;SDS011;516;51.482;7.120;2022-08-24T19:44:17;9.90;;;8.13;;
1054;SDS011;516;51.482;7.120;2022-08-24T19:50:24;8.10;;;7.50;;
1054;SDS011;516;51.482;7.120;2022-08-24T19:56:12;10.37;;;7.53;;
1054;SDS011;516;51.482;7.120;2022-08-24T20:02:00;9.23;;;7.30;;
1054;SDS011;516;51.482;7.120;2022-08-24T20:07:48;10.47;;;9.40;;
1054;SDS011;516;51.482;7.120;2022-08-24T20:13:38;7.90;;;7.30;;
1054;SDS011;516;51.482;7.120;2022-08-24T20:19:26;9.30;;;8.50;;
1054;SDS011;516;51.482;7.120;2022-08-24T20:25:14;9.57;;;8.77;;
1054;SDS011;516;51.482;7.120;2022-08-24T20:27:59;8.83;;;8.10;;
1054;SDS011;516;51.482;7.120;2022-08-24T20:30:27;8.60;;;7.97;;
1054;SDS011;516;51.482;7.120;2022-08-24T20:36:26;8.17;;;7.57;;
1054;SDS011;516;51.482;7.120;2022-08-24T20:43:00;7.70;;;7.17;;
1054;SDS011;516;51.482;7.120;2022-08-24T20:48:48;7.50;;;6.83;;
1054;SDS011;516;51.482;7.120;2022-08-24T20:54:36;8.13;;;7.00;;
1054;SDS011;516;51.482;7.120;2022-08-24T21:00:24;7.10;;;6.60;;
1054;SDS011;516;51.482;7.120;2022-08-24T21:06:14;8.67;;;7.60;;
1054;SDS011;516;51.482;7.120;2022-08-24T21:12:05;7.90;;;7.30;;
1054;SDS011;516;51.482;7.120;2022-08-24T21:17:53;8.03;;;7.23;;
1054;SDS011;516;51.482;7.120;2022-08-24T21:23:41;11.40;;;8.07;;
1054;SDS011;516;51.482;7.120;2022-08-24T21:32:51;7.43;;;7.00;;
1054;SDS011;516;51.482;7.120;2022-08-24T21:38:58;7.97;;;7.33;;
1054;SDS011;516;51.482;7.120;2022-08-24T21:44:47;8.50;;;7.80;;
1054;SDS011;516;51.482;7.120;2022-08-24T21:50:34;10.37;;;8.60;;
1054;SDS011;516;51.482;7.120;2022-08-24T21:56:24;9.93;;;8.10;;
1054;SDS011;516;51.482;7.120;2022-08-24T22:02:13;9.57;;;8.23;;
1054;SDS011;516;51.482;7.120;2022-08-24T22:08:01;8.60;;;7.90;;
1054;SDS011;516;51.482;7.120;2022-08-24T22:13:49;9.83;;;9.00;;
1054;SDS011;516;51.482;7.120;2022-08-24T22:19:38;9.33;;;8.60;;
1054;SDS011;516;51.482;7.120;2022-08-24T22:25:26;9.50;;;8.20;;
1054;SDS011;516;51.482;7.120;2022-08-24T22:31:36;8.63;;;7.63;;
1054;SDS011;516;51.482;7.120;2022-08-24T22:37:30;9.63;;;8.87;;
1054;SDS011;516;51.482;7.120;2022-08-24T22:43:17;9.00;;;8.20;;
1054;SDS011;516;51.482;7.120;2022-08-24T22:49:05;8.00;;;7.20;;
1054;SDS011;516;51.482;7.120;2022-08-24T22:54:54;8.50;;;7.80;;
1054;SDS011;516;51.482;7.120;2022-08-24T23:00:42;13.40;;;9.97;;
1054;SDS011;516;51.482;7.120;2022-08-24T23:06:32;9.47;;;8.40;;
1054;SDS011;516;51.482;7.120;2022-08-24T23:12:21;8.13;;;7.43;;
1054;SDS011;516;51.482;7.120;2022-08-24T23:18:10;8.03;;;7.33;;
1054;SDS011;516;51.482;7.120;2022-08-24T23:24:17;8.20;;;7.60;;
1054;SDS011;516;51.482;7.120;2022-08-24T23:33:27;10.23;;;8.20;;
1054;SDS011;516;51.482;7.120;2022-08-24T23:39:16;12.80;;;7.87;;
1054;SDS011;516;51.482;7.120;2022-08-24T23:45:05;8.77;;;8.07;;
1054;SDS011;516;51.482;7.120;2022-08-24T23:50:54;9.27;;;8.30;;
1054;SDS011;516;51.482;7.120;2022-08-24T23:56:43;8.70;;;8.00;;
